createdAt,value
2023-03-24T00:00:24.116Z,20.10
2023-03-24T00:02:53.086Z,24.10
2023-03-24T00:05:22.627Z,22.70
2023-03-24T00:07:55.049Z,22.00
2023-03-24T00:10:23.528Z,19.40
2023-03-24T00:12:51.644Z,18.90
2023-03-24T00:15:21.674Z,20.20
2023-03-24T00:17:50.672Z,22.80
2023-03-24T00:20:20.406Z,20.10
2023-03-24T00:22:56.975Z,22.70
2023-03-24T00:25:29.196Z,19.40
2023-03-24T00:27:58.048Z,22.00
2023-03-24T00:30:26.475Z,23.50
2023-03-24T00:32:54.594Z,23.70
2023-03-24T00:35:23.836Z,22.20
2023-03-24T00:37:52.275Z,20.30
2023-03-24T00:40:21.467Z,18.80
2023-03-24T00:42:50.034Z,20.50
2023-03-24T00:45:20.656Z,20.70
2023-03-24T00:47:54.667Z,17.80
2023-03-24T00:50:27.138Z,18.30
2023-03-24T00:52:58.262Z,21.60
2023-03-24T00:55:28.770Z,17.20
2023-03-24T00:57:57.483Z,19.40
2023-03-24T01:00:27.046Z,17.30
2023-03-24T01:02:57.594Z,28.30
2023-03-24T01:05:28.486Z,19.20
2023-03-24T01:08:03.741Z,21.80
2023-03-24T01:10:35.117Z,20.30
2023-03-24T01:13:04.068Z,18.80
2023-03-24T01:15:33.616Z,21.30
2023-03-24T01:18:02.600Z,22.40
2023-03-24T01:20:33.384Z,20.20
2023-03-24T01:23:02.134Z,19.70
2023-03-24T01:25:30.666Z,21.40
2023-03-24T01:27:59.083Z,21.80
2023-03-24T01:30:28.227Z,21.00
2023-03-24T01:32:56.989Z,21.00
2023-03-24T01:35:42.385Z,21.50
2023-03-24T01:38:12.486Z,19.90
2023-03-24T01:40:44.260Z,19.00
2023-03-24T01:43:23.740Z,19.10
2023-03-24T01:45:54.811Z,20.00
2023-03-24T01:48:43.916Z,20.50
2023-03-24T01:51:14.928Z,16.60
2023-03-24T01:53:47.613Z,19.30
2023-03-24T01:56:18.474Z,22.70
2023-03-24T01:58:53.884Z,19.20
2023-03-24T02:04:38.933Z,18.60
2023-03-24T02:07:24.428Z,19.70
2023-03-24T02:09:54.318Z,21.60
2023-03-24T02:12:23.018Z,18.60
2023-03-24T02:14:53.964Z,20.00
2023-03-24T02:17:45.747Z,17.50
2023-03-24T02:20:23.374Z,18.90
2023-03-24T02:23:40.591Z,19.00
2023-03-24T02:26:15.507Z,21.10
2023-03-24T02:28:57.046Z,18.10
2023-03-24T02:31:34.276Z,18.10
2023-03-24T02:34:24.295Z,20.10
2023-03-24T02:37:11.667Z,18.70
2023-03-24T02:39:41.868Z,19.80
2023-03-24T02:42:22.677Z,18.40
2023-03-24T02:44:59.729Z,19.10
2023-03-24T02:47:36.448Z,17.50
2023-03-24T02:50:26.453Z,18.10
2023-03-24T02:53:05.745Z,21.80
2023-03-24T02:56:03.581Z,20.80
2023-03-24T02:58:47.526Z,18.90
2023-03-24T03:01:32.779Z,20.20
2023-03-24T03:04:37.244Z,20.20
2023-03-24T03:07:06.558Z,18.70
2023-03-24T03:09:34.900Z,20.20
2023-03-24T03:12:03.135Z,17.00
2023-03-24T03:14:39.308Z,18.10
2023-03-24T03:17:10.784Z,18.70
2023-03-24T03:19:45.356Z,18.50
2023-03-24T03:22:16.912Z,19.30
2023-03-24T03:24:46.895Z,19.80
2023-03-24T03:27:20.309Z,22.30
2023-03-24T03:29:51.303Z,20.80
2023-03-24T03:32:24.878Z,23.10
2023-03-24T03:34:56.745Z,18.20
2023-03-24T03:37:44.880Z,20.00
2023-03-24T03:40:31.343Z,19.60
2023-03-24T03:43:05.340Z,19.30
2023-03-24T03:45:35.711Z,21.70
2023-03-24T03:48:05.461Z,21.70
2023-03-24T03:50:33.699Z,18.50
2023-03-24T03:53:06.954Z,20.50
2023-03-24T03:55:35.583Z,17.10
2023-03-24T03:58:06.757Z,19.70
2023-03-24T04:00:42.136Z,20.60
2023-03-24T04:03:58.940Z,19.70
2023-03-24T04:06:41.118Z,20.20
2023-03-24T04:09:26.211Z,19.00
2023-03-24T04:12:29.044Z,19.40
2023-03-24T04:15:47.464Z,20.30
2023-03-24T04:18:31.723Z,19.70
2023-03-24T04:21:28.629Z,18.70
2023-03-24T04:24:29.197Z,23.20
2023-03-24T04:27:09.503Z,20.00
2023-03-24T04:30:10.486Z,18.20
2023-03-24T04:32:43.280Z,21.40
2023-03-24T04:35:14.447Z,20.60
2023-03-24T04:38:05.964Z,16.20
2023-03-24T04:40:36.768Z,21.80
2023-03-24T04:43:05.824Z,18.60
2023-03-24T04:45:37.485Z,19.70
2023-03-24T04:48:20.879Z,21.80
2023-03-24T04:51:24.802Z,20.90
2023-03-24T04:54:20.038Z,20.40
2023-03-24T04:56:53.092Z,22.50
2023-03-24T04:59:34.656Z,25.20
2023-03-24T05:02:04.720Z,20.20
2023-03-24T05:04:42.591Z,19.60
2023-03-24T05:07:17.712Z,21.30
2023-03-24T05:09:48.158Z,20.70
2023-03-24T05:12:18.667Z,22.90
2023-03-24T05:15:19.639Z,20.50
2023-03-24T05:17:51.879Z,18.20
2023-03-24T05:20:20.682Z,18.50
2023-03-24T05:22:50.720Z,23.90
2023-03-24T05:25:21.571Z,19.60
2023-03-24T05:27:53.087Z,18.70
2023-03-24T05:30:24.006Z,16.40
2023-03-24T05:32:54.221Z,19.10
2023-03-24T05:35:22.623Z,21.70
2023-03-24T05:37:51.222Z,21.50
2023-03-24T05:40:19.467Z,25.00
2023-03-24T05:42:54.630Z,18.60
2023-03-24T05:45:29.553Z,21.20
2023-03-24T05:47:58.213Z,23.10
2023-03-24T05:50:38.138Z,20.50
2023-03-24T05:53:07.192Z,21.00
2023-03-24T05:56:11.925Z,22.00
2023-03-24T05:59:01.091Z,21.60
2023-03-24T06:01:48.387Z,18.90
2023-03-24T06:04:30.058Z,21.10
2023-03-24T06:07:08.999Z,19.30
2023-03-24T06:09:39.720Z,19.00
2023-03-24T06:12:09.383Z,23.90
2023-03-24T06:14:38.752Z,17.50
2023-03-24T06:17:15.157Z,19.90
2023-03-24T06:19:51.238Z,21.80
2023-03-24T06:22:33.052Z,18.00
2023-03-24T06:25:03.817Z,21.30
2023-03-24T06:27:32.876Z,15.50
2023-03-24T06:30:01.084Z,20.00
2023-03-24T06:32:31.014Z,17.00
2023-03-24T06:35:01.085Z,23.20
2023-03-24T06:37:43.037Z,24.40
2023-03-24T06:40:15.948Z,20.70
2023-03-24T06:42:49.920Z,23.20
2023-03-24T06:45:19.263Z,18.60
2023-03-24T06:47:48.022Z,16.30
2023-03-24T06:50:16.212Z,20.30
2023-03-24T06:52:44.226Z,23.10
2023-03-24T06:55:13.228Z,20.50
2023-03-24T06:57:43.558Z,19.30
2023-03-24T07:00:35.547Z,17.30
2023-03-24T07:03:22.748Z,25.20
2023-03-24T07:06:20.517Z,21.20
2023-03-24T07:08:52.434Z,22.70
2023-03-24T07:11:22.518Z,18.30
2023-03-24T07:13:56.597Z,20.90
2023-03-24T07:16:27.827Z,22.90
2023-03-24T07:19:23.786Z,20.90
2023-03-24T07:22:08.386Z,20.20
2023-03-24T07:24:53.603Z,18.20
2023-03-24T07:27:41.656Z,20.40
2023-03-24T07:30:11.519Z,22.20
2023-03-24T07:32:44.813Z,20.40
2023-03-24T07:35:13.248Z,20.80
2023-03-24T07:37:42.682Z,22.70
2023-03-24T07:40:13.221Z,19.00
2023-03-24T07:42:42.698Z,18.00
2023-03-24T07:45:49.842Z,24.20
2023-03-24T07:48:19.822Z,25.90
2023-03-24T07:50:49.080Z,21.50
2023-03-24T07:53:45.826Z,21.90
2023-03-24T07:56:15.985Z,20.70
2023-03-24T08:01:31.957Z,18.30
2023-03-24T08:04:04.800Z,18.80
2023-03-24T08:07:09.727Z,15.90
2023-03-24T08:09:37.930Z,23.30
2023-03-24T08:12:13.834Z,17.20
2023-03-24T08:14:48.174Z,19.30
2023-03-24T08:17:16.136Z,17.90
2023-03-24T08:19:58.473Z,21.60
2023-03-24T08:22:30.679Z,18.80
2023-03-24T08:24:58.594Z,19.60
2023-03-24T08:27:30.029Z,20.90
2023-03-24T08:29:58.237Z,24.20
2023-03-24T08:32:26.230Z,21.80
2023-03-24T08:34:54.468Z,24.30
2023-03-24T08:37:22.508Z,22.90
2023-03-24T08:39:51.625Z,28.70
2023-03-24T08:42:19.577Z,20.60
2023-03-24T08:44:47.504Z,21.60
2023-03-24T08:47:15.389Z,34.70
2023-03-24T08:49:43.455Z,26.60
2023-03-24T08:52:12.798Z,20.80
2023-03-24T08:54:41.413Z,24.40
2023-03-24T08:57:17.330Z,26.40
2023-03-24T08:59:46.654Z,22.90
2023-03-24T09:02:15.493Z,23.10
2023-03-24T09:04:46.092Z,21.10
2023-03-24T09:07:14.456Z,20.10
2023-03-24T09:09:42.637Z,29.80
2023-03-24T09:12:13.354Z,31.50
2023-03-24T09:14:42.129Z,21.90
2023-03-24T09:17:10.123Z,27.50
2023-03-24T09:19:47.437Z,31.90
2023-03-24T09:22:16.786Z,24.20
2023-03-24T09:24:44.913Z,28.30
2023-03-24T09:27:13.341Z,20.00
2023-03-24T09:29:41.480Z,24.70
2023-03-24T09:32:11.346Z,27.80
2023-03-24T09:34:39.340Z,23.90
2023-03-24T09:37:07.910Z,24.60
2023-03-24T09:40:29.107Z,19.10
2023-03-24T09:43:24.521Z,20.40
2023-03-24T09:45:56.032Z,19.70
2023-03-24T09:48:30.114Z,22.20
2023-03-24T09:51:07.728Z,29.50
2023-03-24T09:53:39.380Z,19.80
2023-03-24T09:56:16.297Z,28.70
2023-03-24T09:58:45.523Z,32.40
2023-03-24T10:01:15.483Z,24.60
2023-03-24T10:03:44.668Z,18.20
2023-03-24T10:06:23.278Z,21.50
2023-03-24T10:09:14.928Z,23.20
2023-03-24T10:12:11.528Z,21.90
2023-03-24T10:14:50.151Z,24.90
2023-03-24T10:17:57.164Z,18.60
2023-03-24T10:20:42.062Z,19.20
2023-03-24T10:23:41.545Z,20.10
2023-03-24T10:26:15.718Z,17.90
2023-03-24T10:28:55.039Z,22.70
2023-03-24T10:31:30.928Z,22.80
2023-03-24T10:33:59.372Z,24.30
2023-03-24T10:36:28.111Z,18.00
2023-03-24T10:38:58.732Z,22.00
2023-03-24T10:41:29.587Z,17.80
2023-03-24T10:43:57.582Z,16.90
2023-03-24T10:46:28.327Z,23.10
2023-03-24T10:49:15.033Z,26.60
2023-03-24T10:51:51.527Z,12.80
2023-03-24T10:54:22.158Z,12.30
2023-03-24T10:57:05.061Z,10.90
2023-03-24T10:59:36.868Z,13.60
2023-03-24T11:02:11.508Z,16.90
2023-03-24T11:04:43.989Z,13.00
2023-03-24T11:07:17.608Z,12.00
2023-03-24T11:10:06.230Z,11.10
2023-03-24T11:12:39.129Z,13.10
2023-03-24T11:15:22.856Z,14.50
2023-03-24T11:18:01.896Z,16.00
2023-03-24T11:20:39.677Z,10.40
2023-03-24T11:23:21.263Z,11.20
2023-03-24T11:26:30.367Z,10.80
2023-03-24T11:29:11.104Z,12.50
2023-03-24T11:31:40.086Z,16.30
2023-03-24T11:34:10.971Z,11.20
2023-03-24T11:36:45.335Z,17.80
2023-03-24T11:39:17.549Z,10.40
2023-03-24T11:41:53.163Z,13.60
2023-03-24T11:44:23.898Z,9.50
2023-03-24T11:46:57.621Z,16.00
2023-03-24T11:49:29.314Z,16.20
2023-03-24T11:51:57.524Z,17.70
2023-03-24T11:54:34.253Z,15.40
2023-03-24T11:57:11.926Z,10.00
2023-03-24T11:59:51.038Z,15.60
2023-03-24T12:02:24.943Z,12.20
2023-03-24T12:05:26.357Z,14.00
2023-03-24T12:08:04.248Z,12.00
2023-03-24T12:10:38.060Z,12.80
2023-03-24T12:13:25.970Z,20.20
2023-03-24T12:16:04.376Z,14.70
2023-03-24T12:18:45.695Z,14.50
2023-03-24T12:21:17.075Z,12.70
2023-03-24T12:23:58.693Z,16.20
2023-03-24T12:26:27.940Z,12.30
2023-03-24T12:29:21.682Z,7.70
2023-03-24T12:32:08.502Z,21.20
2023-03-24T12:34:48.147Z,16.50
2023-03-24T12:37:31.651Z,8.10
2023-03-24T12:40:34.732Z,8.50
2023-03-24T12:43:27.275Z,8.60
2023-03-24T12:45:55.832Z,6.50
2023-03-24T12:48:58.380Z,11.70
2023-03-24T12:51:44.966Z,7.40
2023-03-24T12:54:26.275Z,8.30
2023-03-24T12:57:24.933Z,8.00
2023-03-24T13:00:14.433Z,13.00
2023-03-24T13:02:47.216Z,9.00
2023-03-24T13:05:19.253Z,16.50
2023-03-24T13:07:53.969Z,13.00
2023-03-24T13:10:25.780Z,10.10
2023-03-24T13:13:06.241Z,10.00
2023-03-24T13:15:37.625Z,19.20
2023-03-24T13:18:12.182Z,9.60
2023-03-24T13:20:48.613Z,6.90
2023-03-24T13:23:44.896Z,8.70
2023-03-24T13:26:35.247Z,6.50
2023-03-24T13:29:03.534Z,8.70
2023-03-24T13:31:37.616Z,8.00
2023-03-24T13:34:06.506Z,11.80
2023-03-24T13:36:48.893Z,8.70
2023-03-24T13:39:20.931Z,9.60
2023-03-24T13:41:51.645Z,18.40
2023-03-24T13:44:36.265Z,8.60
2023-03-24T13:47:15.905Z,18.40
2023-03-24T13:50:01.425Z,12.40
2023-03-24T13:52:35.356Z,10.00
2023-03-24T13:55:27.840Z,9.10
2023-03-24T13:57:58.607Z,15.40
2023-03-24T14:00:27.586Z,7.70
2023-03-24T14:03:05.269Z,9.20
2023-03-24T14:05:42.230Z,11.30
2023-03-24T14:10:44.894Z,9.40
2023-03-24T14:13:12.891Z,8.00
2023-03-24T14:15:52.305Z,7.90
2023-03-24T14:18:24.039Z,10.20
2023-03-24T14:20:56.480Z,8.50
2023-03-24T14:23:34.038Z,10.70
2023-03-24T14:26:20.013Z,11.30
2023-03-24T14:28:52.892Z,15.20
2023-03-24T14:31:38.529Z,15.00
2023-03-24T14:34:20.441Z,13.60
2023-03-24T14:36:50.333Z,15.00
2023-03-24T14:39:36.758Z,9.50
2023-03-24T14:42:28.169Z,15.10
2023-03-24T14:44:59.091Z,12.30
2023-03-24T14:47:29.889Z,10.80
2023-03-24T14:49:59.912Z,12.70
2023-03-24T14:52:36.251Z,13.10
2023-03-24T14:55:12.502Z,13.70
2023-03-24T14:57:42.483Z,12.50
2023-03-24T15:00:20.182Z,11.50
2023-03-24T15:02:52.682Z,11.10
2023-03-24T15:05:41.370Z,14.60
2023-03-24T15:08:21.122Z,17.80
2023-03-24T15:11:00.653Z,13.60
2023-03-24T15:13:34.661Z,10.90
2023-03-24T15:16:16.943Z,14.00
2023-03-24T15:19:01.350Z,16.30
2023-03-24T15:21:37.261Z,10.70
2023-03-24T15:24:21.117Z,13.80
2023-03-24T15:26:52.880Z,13.40
2023-03-24T15:29:21.222Z,10.70
2023-03-24T15:31:49.762Z,16.70
2023-03-24T15:34:34.074Z,18.50
2023-03-24T15:37:07.902Z,19.80
2023-03-24T15:39:37.296Z,15.20
2023-03-24T15:42:07.055Z,17.20
2023-03-24T15:44:39.516Z,15.80
2023-03-24T15:47:23.001Z,17.80
2023-03-24T15:49:58.995Z,11.00
2023-03-24T15:52:31.239Z,14.60
2023-03-24T15:55:06.245Z,15.50
2023-03-24T15:57:40.958Z,18.20
2023-03-24T16:00:20.432Z,18.50
2023-03-24T16:02:53.775Z,21.20
2023-03-24T16:05:26.904Z,17.70
2023-03-24T16:08:08.009Z,22.50
2023-03-24T16:10:42.928Z,18.00
2023-03-24T16:16:00.442Z,17.00
2023-03-24T16:18:37.213Z,17.10
2023-03-24T16:23:43.760Z,22.40
2023-03-24T16:26:22.865Z,24.90
2023-03-24T16:28:52.644Z,19.70
2023-03-24T16:31:27.124Z,21.70
2023-03-24T16:33:57.913Z,19.60
2023-03-24T16:36:28.092Z,19.90
2023-03-24T16:38:57.811Z,16.60
2023-03-24T16:41:25.915Z,20.60
2023-03-24T16:43:54.395Z,21.80
2023-03-24T16:46:27.126Z,25.80
2023-03-24T16:48:56.698Z,18.90
2023-03-24T16:51:24.915Z,21.10
2023-03-24T16:53:55.646Z,23.70
2023-03-24T16:56:24.511Z,20.40
2023-03-24T16:58:54.551Z,30.90
2023-03-24T17:01:33.797Z,25.90
2023-03-24T17:04:12.007Z,23.90
2023-03-24T17:06:44.585Z,24.10
2023-03-24T17:09:13.069Z,24.80
2023-03-24T17:11:42.993Z,27.60
2023-03-24T17:14:16.611Z,29.10
2023-03-24T17:16:46.659Z,25.80
2023-03-24T17:19:16.615Z,28.70
2023-03-24T17:21:52.884Z,24.50
2023-03-24T17:24:21.306Z,27.00
2023-03-24T17:26:49.445Z,29.10
2023-03-24T17:29:17.578Z,30.60
2023-03-24T17:31:45.696Z,27.80
2023-03-24T17:36:46.438Z,34.80
2023-03-24T17:39:16.154Z,27.40
2023-03-24T17:41:48.550Z,28.60
2023-03-24T17:44:16.500Z,26.40
2023-03-24T17:46:44.570Z,28.10
2023-03-24T17:49:12.574Z,25.60
2023-03-24T17:51:40.473Z,28.80
2023-03-24T17:54:11.914Z,23.80
2023-03-24T17:56:41.155Z,20.20
2023-03-24T17:59:11.118Z,25.00
2023-03-24T18:01:40.472Z,21.30
2023-03-24T18:04:09.064Z,20.70
2023-03-24T18:06:38.582Z,18.00
2023-03-24T18:09:08.827Z,24.10
2023-03-24T18:11:37.033Z,18.70
2023-03-24T18:14:05.310Z,23.70
2023-03-24T18:16:35.702Z,20.50
2023-03-24T18:19:04.303Z,26.70
2023-03-24T18:21:34.943Z,23.50
2023-03-24T18:24:04.515Z,20.20
2023-03-24T18:26:33.769Z,21.30
2023-03-24T18:29:02.476Z,18.80
2023-03-24T18:31:31.730Z,23.50
2023-03-24T18:33:59.981Z,20.50
2023-03-24T18:36:29.189Z,21.10
2023-03-24T18:38:58.565Z,22.70
2023-03-24T18:41:28.451Z,21.50
2023-03-24T18:43:58.306Z,17.10
2023-03-24T18:46:30.563Z,20.00
2023-03-24T18:48:58.852Z,14.90
2023-03-24T18:51:28.238Z,17.50
2023-03-24T18:53:56.952Z,18.10
2023-03-24T18:56:25.535Z,17.50
2023-03-24T18:58:53.505Z,17.20
2023-03-24T19:01:23.246Z,20.40
2023-03-24T19:03:52.466Z,15.70
2023-03-24T19:06:22.087Z,20.20
2023-03-24T19:08:52.351Z,17.10
2023-03-24T19:11:20.803Z,16.80
2023-03-24T19:13:58.074Z,17.50
2023-03-24T19:16:26.615Z,18.80
2023-03-24T19:18:57.861Z,16.80
2023-03-24T19:21:27.541Z,16.60
2023-03-24T19:23:57.142Z,15.20
2023-03-24T19:26:25.990Z,26.50
2023-03-24T19:28:57.692Z,15.60
2023-03-24T19:31:25.654Z,17.80
2023-03-24T19:33:55.087Z,14.90
2023-03-24T19:36:23.068Z,16.50
2023-03-24T19:38:51.557Z,16.30
2023-03-24T19:41:26.265Z,16.70
2023-03-24T19:43:54.272Z,18.40
2023-03-24T19:46:24.697Z,18.50
2023-03-24T19:48:52.676Z,18.00
2023-03-24T19:51:21.373Z,17.00
2023-03-24T19:53:50.331Z,18.70
2023-03-24T19:56:20.782Z,21.50
2023-03-24T19:58:53.106Z,19.30
2023-03-24T20:01:23.781Z,24.00
2023-03-24T20:03:52.092Z,18.80
2023-03-24T20:06:20.115Z,19.20
2023-03-24T20:08:49.421Z,16.60
2023-03-24T20:11:18.116Z,23.00
2023-03-24T20:13:48.338Z,18.90
2023-03-24T20:16:16.366Z,16.30
2023-03-24T20:18:44.266Z,19.90
2023-03-24T20:21:18.432Z,23.00
2023-03-24T20:23:46.632Z,17.00
2023-03-24T20:26:19.658Z,18.40
2023-03-24T20:28:48.122Z,21.20
2023-03-24T20:31:16.574Z,19.70
2023-03-24T20:33:46.391Z,17.60
2023-03-24T20:36:14.758Z,19.90
2023-03-24T20:38:42.661Z,21.00
2023-03-24T20:41:10.645Z,21.80
2023-03-24T20:43:39.248Z,21.50
2023-03-24T20:46:09.165Z,26.70
2023-03-24T20:48:41.313Z,21.40
2023-03-24T20:51:09.592Z,29.70
2023-03-24T20:53:38.282Z,23.00
2023-03-24T20:56:10.099Z,26.80
2023-03-24T20:58:38.770Z,25.80
2023-03-24T21:01:11.965Z,27.80
2023-03-24T21:03:40.892Z,27.30
2023-03-24T21:06:10.719Z,29.50
2023-03-24T21:08:38.881Z,28.10
2023-03-24T21:11:11.496Z,27.10
2023-03-24T21:13:41.322Z,24.90
2023-03-24T21:16:09.732Z,28.20
2023-03-24T21:18:39.519Z,24.50
2023-03-24T21:21:12.556Z,24.50
2023-03-24T21:23:42.046Z,21.60
2023-03-24T21:26:15.746Z,25.90
2023-03-24T21:28:45.443Z,27.50
2023-03-24T21:31:19.055Z,31.20
2023-03-24T21:33:47.204Z,28.10
2023-03-24T21:36:15.622Z,26.50
2023-03-24T21:38:44.508Z,21.80
2023-03-24T21:41:12.784Z,25.00
2023-03-24T21:43:41.018Z,24.90
2023-03-24T21:46:20.532Z,22.30
2023-03-24T21:48:52.952Z,19.80
2023-03-24T21:51:24.204Z,23.90
2023-03-24T21:53:55.835Z,22.90
2023-03-24T21:57:49.995Z,18.80
2023-03-24T22:00:21.348Z,22.50
2023-03-24T22:02:51.741Z,21.20
2023-03-24T22:05:24.683Z,22.30
2023-03-24T22:07:56.065Z,16.60
2023-03-24T22:10:24.381Z,20.60
2023-03-24T22:12:53.327Z,24.00
2023-03-24T22:15:22.604Z,20.40
2023-03-24T22:17:51.141Z,19.90
2023-03-24T22:20:28.333Z,18.90
2023-03-24T22:23:03.435Z,17.50
2023-03-24T22:25:34.379Z,19.80
2023-03-24T22:28:03.185Z,19.70
2023-03-24T22:30:32.405Z,19.90
2023-03-24T22:33:01.427Z,16.60
2023-03-24T22:35:29.728Z,16.50
2023-03-24T22:37:58.112Z,18.80
2023-03-24T22:40:26.042Z,18.40
2023-03-24T22:42:54.481Z,15.40
2023-03-24T22:45:22.711Z,20.50
2023-03-24T22:47:50.682Z,20.20
2023-03-24T22:50:18.763Z,18.10
2023-03-24T22:52:47.480Z,23.20
2023-03-24T22:55:16.268Z,17.50
2023-03-24T22:57:44.185Z,17.20
2023-03-24T23:00:14.693Z,18.80
2023-03-24T23:02:43.007Z,19.70
2023-03-24T23:05:11.260Z,16.40
2023-03-24T23:07:42.104Z,22.60
2023-03-24T23:10:11.592Z,16.60
2023-03-24T23:12:45.844Z,19.70
2023-03-24T23:15:17.857Z,19.70
2023-03-24T23:17:46.979Z,17.80
2023-03-24T23:20:15.650Z,20.80
2023-03-24T23:22:43.679Z,21.10
2023-03-24T23:25:14.708Z,22.10
2023-03-24T23:27:43.436Z,23.40
2023-03-24T23:30:12.556Z,24.70
2023-03-24T23:32:41.480Z,23.10
2023-03-24T23:35:10.143Z,25.40
2023-03-24T23:37:39.673Z,25.50
2023-03-24T23:40:13.060Z,25.10
2023-03-24T23:42:44.991Z,24.00
2023-03-24T23:45:18.277Z,22.40
2023-03-24T23:47:49.957Z,24.10
2023-03-24T23:50:19.204Z,21.70
2023-03-24T23:53:06.986Z,23.30
2023-03-24T23:55:36.858Z,21.40
2023-03-24T23:58:05.434Z,21.40
